createdAt,value
2023-03-15T00:00:56.184Z,53.54
2023-03-15T00:03:26.351Z,53.67
2023-03-15T00:05:57.984Z,53.51
2023-03-15T00:08:28.609Z,52.40
2023-03-15T00:11:12.786Z,52.90
2023-03-15T00:13:53.102Z,52.84
2023-03-15T00:16:42.211Z,52.38
2023-03-15T00:19:24.870Z,52.73
2023-03-15T00:25:00.977Z,52.61
2023-03-15T00:27:40.730Z,52.74
2023-03-15T00:30:33.343Z,53.55
2023-03-15T00:35:53.754Z,52.94
2023-03-15T00:38:22.047Z,53.21
2023-03-15T00:41:06.343Z,53.94
2023-03-15T00:43:36.405Z,54.30
2023-03-15T00:46:15.972Z,55.40
2023-03-15T00:48:55.576Z,56.16
2023-03-15T00:51:25.331Z,56.76
2023-03-15T00:53:54.898Z,56.93
2023-03-15T00:56:24.700Z,56.79
2023-03-15T00:58:53.568Z,55.68
2023-03-15T01:01:26.833Z,55.56
2023-03-15T01:03:56.380Z,55.96
2023-03-15T01:06:25.745Z,56.07
2023-03-15T01:08:55.780Z,56.08
2023-03-15T01:11:26.001Z,56.28
2023-03-15T01:13:55.521Z,56.53
2023-03-15T01:16:29.465Z,56.66
2023-03-15T01:19:03.139Z,56.79
2023-03-15T01:21:41.316Z,56.77
2023-03-15T01:24:18.114Z,56.76
2023-03-15T01:26:53.900Z,57.00
2023-03-15T01:29:46.200Z,57.46
2023-03-15T01:32:26.205Z,57.36
2023-03-15T01:35:06.456Z,57.31
2023-03-15T01:37:48.794Z,57.53
2023-03-15T01:40:40.661Z,57.25
2023-03-15T01:43:24.426Z,56.68
2023-03-15T01:46:08.613Z,56.90
2023-03-15T01:48:44.928Z,56.89
2023-03-15T01:51:17.269Z,57.05
2023-03-15T01:53:50.423Z,56.95
2023-03-15T01:56:18.598Z,57.26
2023-03-15T01:59:02.121Z,56.98
2023-03-15T02:01:51.622Z,57.45
2023-03-15T02:04:37.110Z,57.29
2023-03-15T02:07:18.691Z,57.03
2023-03-15T02:13:03.973Z,57.35
2023-03-15T02:15:40.540Z,57.69
2023-03-15T02:18:08.719Z,57.34
2023-03-15T02:20:51.270Z,57.30
2023-03-15T02:23:21.517Z,57.16
2023-03-15T02:25:55.717Z,57.17
2023-03-15T02:28:43.325Z,57.24
2023-03-15T02:31:21.913Z,57.15
2023-03-15T02:33:56.258Z,57.61
2023-03-15T02:36:26.996Z,57.20
2023-03-15T02:38:56.421Z,57.10
2023-03-15T02:41:29.457Z,57.11
2023-03-15T02:44:16.876Z,57.65
2023-03-15T02:46:52.890Z,57.60
2023-03-15T02:49:29.232Z,57.28
2023-03-15T02:51:57.756Z,57.19
2023-03-15T02:54:25.625Z,57.59
2023-03-15T02:56:53.448Z,57.47
2023-03-15T02:59:23.084Z,57.48
2023-03-15T03:01:51.250Z,57.33
2023-03-15T03:04:20.727Z,57.98
2023-03-15T03:06:48.698Z,57.83
2023-03-15T03:09:17.729Z,57.99
2023-03-15T03:11:45.639Z,57.83
2023-03-15T03:14:14.700Z,58.28
2023-03-15T03:16:44.170Z,58.14
2023-03-15T03:19:13.116Z,58.30
2023-03-15T03:21:43.280Z,58.71
2023-03-15T03:24:11.895Z,59.06
2023-03-15T03:26:39.785Z,58.79
2023-03-15T03:29:07.634Z,58.58
2023-03-15T03:31:35.758Z,58.71
2023-03-15T03:34:05.234Z,58.83
2023-03-15T03:36:34.068Z,58.36
2023-03-15T03:39:04.590Z,58.38
2023-03-15T03:41:32.460Z,58.89
2023-03-15T03:44:15.603Z,58.87
2023-03-15T03:46:51.938Z,59.00
2023-03-15T03:52:15.783Z,58.80
2023-03-15T03:54:45.209Z,58.48
2023-03-15T03:57:14.595Z,58.46
2023-03-15T03:59:54.773Z,58.88
2023-03-15T04:02:34.282Z,59.21
2023-03-15T04:05:11.831Z,59.68
2023-03-15T04:07:42.887Z,59.46
2023-03-15T04:10:14.810Z,59.86
2023-03-15T04:12:55.145Z,60.21
2023-03-15T04:15:29.414Z,60.10
2023-03-15T04:18:08.182Z,60.75
2023-03-15T04:20:51.938Z,60.90
2023-03-15T04:23:28.122Z,61.26
2023-03-15T04:26:03.974Z,61.61
2023-03-15T04:28:31.951Z,61.42
2023-03-15T04:30:59.860Z,61.52
2023-03-15T04:33:27.915Z,62.33
2023-03-15T04:35:57.913Z,62.47
2023-03-15T04:38:27.061Z,62.56
2023-03-15T04:40:55.777Z,62.42
2023-03-15T04:43:25.427Z,62.36
2023-03-15T04:45:57.760Z,61.88
2023-03-15T04:48:34.132Z,61.69
2023-03-15T04:51:14.544Z,61.71
2023-03-15T04:53:46.172Z,62.24
2023-03-15T04:56:16.937Z,61.58
2023-03-15T04:58:44.884Z,61.95
2023-03-15T05:01:18.273Z,61.75
2023-03-15T05:03:47.189Z,61.34
2023-03-15T05:06:29.552Z,61.63
2023-03-15T05:08:59.051Z,61.96
2023-03-15T05:11:27.760Z,62.37
2023-03-15T05:14:12.415Z,61.89
2023-03-15T05:16:51.479Z,61.25
2023-03-15T05:19:20.627Z,61.22
2023-03-15T05:21:55.298Z,59.63
2023-03-15T05:24:32.857Z,58.28
2023-03-15T05:27:03.530Z,58.44
2023-03-15T05:29:32.181Z,58.36
2023-03-15T05:32:10.695Z,58.56
2023-03-15T05:34:38.754Z,58.57
2023-03-15T05:37:16.153Z,58.46
2023-03-15T05:39:46.110Z,58.80
2023-03-15T05:45:34.426Z,56.81
2023-03-15T05:48:04.924Z,57.49
2023-03-15T05:53:29.080Z,57.54
2023-03-15T05:56:01.777Z,58.04
2023-03-15T05:58:29.717Z,57.94
2023-03-15T06:00:58.299Z,58.56
2023-03-15T06:03:26.628Z,58.98
2023-03-15T06:06:01.668Z,59.58
2023-03-15T06:08:38.297Z,59.81
2023-03-15T06:11:11.448Z,57.99
2023-03-15T06:13:45.157Z,57.84
2023-03-15T06:16:32.088Z,58.12
2023-03-15T06:19:03.023Z,58.46
2023-03-15T06:21:31.918Z,56.44
2023-03-15T06:24:03.455Z,55.82
2023-03-15T06:26:31.539Z,54.97
2023-03-15T06:28:59.376Z,52.93
2023-03-15T06:31:27.263Z,52.19
2023-03-15T06:33:55.161Z,53.87
2023-03-15T06:36:24.546Z,54.35
2023-03-15T06:38:54.270Z,55.74
2023-03-15T06:41:23.793Z,55.16
2023-03-15T06:43:51.967Z,52.85
2023-03-15T06:46:19.946Z,53.20
2023-03-15T06:48:47.874Z,54.96
2023-03-15T06:51:15.957Z,54.05
2023-03-15T06:53:43.938Z,52.56
2023-03-15T06:56:12.061Z,51.61
2023-03-15T06:58:41.687Z,49.61
2023-03-15T07:01:12.673Z,51.24
2023-03-15T07:03:40.702Z,50.87
2023-03-15T07:06:08.783Z,50.96
2023-03-15T07:08:36.807Z,51.86
2023-03-15T07:11:06.426Z,52.18
2023-03-15T07:13:34.452Z,52.39
2023-03-15T07:16:03.800Z,51.49
2023-03-15T07:18:33.702Z,49.99
2023-03-15T07:21:03.667Z,51.02
2023-03-15T07:23:32.019Z,50.28
2023-03-15T07:25:59.917Z,49.59
2023-03-15T07:28:28.495Z,49.32
2023-03-15T07:30:57.712Z,49.87
2023-03-15T07:33:29.301Z,49.21
2023-03-15T07:35:57.595Z,48.74
2023-03-15T07:38:27.085Z,49.69
2023-03-15T07:40:55.058Z,48.42
2023-03-15T07:43:23.395Z,48.53
2023-03-15T07:45:51.774Z,47.16
2023-03-15T07:48:19.702Z,45.25
2023-03-15T07:50:49.620Z,46.59
2023-03-15T07:53:17.594Z,44.59
2023-03-15T07:55:47.761Z,42.85
2023-03-15T07:58:17.971Z,42.94
2023-03-15T08:00:47.876Z,43.22
2023-03-15T08:03:15.893Z,43.60
2023-03-15T08:05:44.035Z,43.34
2023-03-15T08:08:13.318Z,42.84
2023-03-15T08:10:41.300Z,43.77
2023-03-15T08:13:09.708Z,44.52
2023-03-15T08:15:37.816Z,44.27
2023-03-15T08:18:06.545Z,44.74
2023-03-15T08:20:34.955Z,44.29
2023-03-15T08:23:02.979Z,44.79
2023-03-15T08:25:33.138Z,43.69
2023-03-15T08:28:01.842Z,42.25
2023-03-15T08:30:29.867Z,41.26
2023-03-15T08:32:58.014Z,40.67
2023-03-15T08:35:26.085Z,41.79
2023-03-15T08:37:54.215Z,40.55
2023-03-15T08:40:25.751Z,40.56
2023-03-15T08:42:55.724Z,41.51
2023-03-15T08:45:24.190Z,42.32
2023-03-15T08:47:55.981Z,41.62
2023-03-15T08:50:24.386Z,39.79
2023-03-15T08:52:52.391Z,41.08
2023-03-15T08:55:20.824Z,41.46
2023-03-15T08:57:48.812Z,41.67
2023-03-15T09:00:20.798Z,42.78
2023-03-15T09:02:49.915Z,44.07
2023-03-15T09:05:18.482Z,44.36
2023-03-15T09:07:47.827Z,44.19
2023-03-15T09:10:17.694Z,43.46
2023-03-15T09:12:49.890Z,43.26
2023-03-15T09:15:20.177Z,43.66
2023-03-15T09:17:50.314Z,43.98
2023-03-15T09:20:19.357Z,44.08
2023-03-15T09:22:51.974Z,44.43
2023-03-15T09:25:20.228Z,44.61
2023-03-15T09:27:48.223Z,45.08
2023-03-15T09:30:16.512Z,46.23
2023-03-15T09:32:46.209Z,46.73
2023-03-15T09:35:16.108Z,46.42
2023-03-15T09:37:44.201Z,46.56
2023-03-15T09:40:19.848Z,46.32
2023-03-15T09:43:00.558Z,45.98
2023-03-15T09:45:33.166Z,44.91
2023-03-15T09:48:09.749Z,44.15
2023-03-15T09:50:42.542Z,44.54
2023-03-15T09:53:15.875Z,44.64
2023-03-15T09:55:47.055Z,45.54
2023-03-15T09:58:19.421Z,45.66
2023-03-15T10:00:50.803Z,45.10
2023-03-15T10:03:28.189Z,45.49
2023-03-15T10:06:00.191Z,45.41
2023-03-15T10:08:28.637Z,45.34
2023-03-15T10:11:07.336Z,45.18
2023-03-15T10:13:47.902Z,45.87
2023-03-15T10:16:30.166Z,45.56
2023-03-15T10:19:13.763Z,45.77
2023-03-15T10:21:53.230Z,45.64
2023-03-15T10:24:26.271Z,45.42
2023-03-15T10:26:55.036Z,45.38
2023-03-15T10:29:28.109Z,45.11
2023-03-15T10:31:56.265Z,44.66
2023-03-15T10:34:26.934Z,45.75
2023-03-15T10:36:55.659Z,45.36
2023-03-15T10:39:26.171Z,45.87
2023-03-15T10:41:54.095Z,45.99
2023-03-15T10:44:25.396Z,45.26
2023-03-15T10:47:21.599Z,45.73
2023-03-15T10:49:57.587Z,45.62
2023-03-15T10:52:35.406Z,45.60
2023-03-15T10:55:08.229Z,45.28
2023-03-15T10:57:40.207Z,46.10
2023-03-15T11:00:24.213Z,45.83
2023-03-15T11:02:53.733Z,45.73
2023-03-15T11:05:23.219Z,45.01
2023-03-15T11:07:58.800Z,45.75
2023-03-15T11:10:28.939Z,45.68
2023-03-15T11:13:14.492Z,46.17
2023-03-15T11:15:50.305Z,46.35
2023-03-15T11:18:20.714Z,46.48
2023-03-15T11:20:50.186Z,46.70
2023-03-15T11:23:23.466Z,46.06
2023-03-15T11:25:51.421Z,45.78
2023-03-15T11:28:23.674Z,45.40
2023-03-15T11:30:51.811Z,46.00
2023-03-15T11:33:38.947Z,45.70
2023-03-15T11:36:14.460Z,45.45
2023-03-15T11:38:45.066Z,45.88
2023-03-15T11:41:21.879Z,45.60
2023-03-15T11:43:57.651Z,45.42
2023-03-15T11:46:31.227Z,45.45
2023-03-15T11:49:06.078Z,45.29
2023-03-15T11:51:37.528Z,45.20
2023-03-15T11:54:13.611Z,44.92
2023-03-15T11:56:55.136Z,45.40
2023-03-15T11:59:27.187Z,45.76
2023-03-15T12:01:59.690Z,45.26
2023-03-15T12:04:51.064Z,45.18
2023-03-15T12:07:38.524Z,45.30
2023-03-15T12:10:34.343Z,45.37
2023-03-15T12:13:09.470Z,45.29
2023-03-15T12:15:47.003Z,45.21
2023-03-15T12:18:28.759Z,45.38
2023-03-15T12:21:12.910Z,45.25
2023-03-15T12:23:46.598Z,45.42
2023-03-15T12:26:25.844Z,45.57
2023-03-15T12:29:05.100Z,45.39
2023-03-15T12:31:52.668Z,45.28
2023-03-15T12:34:27.550Z,45.60
2023-03-15T12:37:01.763Z,45.20
2023-03-15T12:39:46.959Z,46.56
2023-03-15T12:42:32.015Z,48.03
2023-03-15T12:45:34.901Z,49.48
2023-03-15T12:48:32.106Z,50.26
2023-03-15T12:51:06.110Z,50.36
2023-03-15T12:53:47.681Z,50.53
2023-03-15T12:56:47.556Z,51.20
2023-03-15T12:59:26.243Z,51.48
2023-03-15T13:01:56.380Z,52.46
2023-03-15T13:04:24.414Z,52.07
2023-03-15T13:07:10.061Z,52.91
2023-03-15T13:09:53.848Z,53.57
2023-03-15T13:12:29.548Z,53.67
2023-03-15T13:15:05.662Z,53.83
2023-03-15T13:17:42.015Z,53.24
2023-03-15T13:20:32.084Z,52.95
2023-03-15T13:23:10.706Z,52.74
2023-03-15T13:25:49.598Z,52.31
2023-03-15T13:28:23.676Z,52.36
2023-03-15T13:30:53.989Z,51.47
2023-03-15T13:33:24.704Z,51.84
2023-03-15T13:36:01.322Z,52.06
2023-03-15T13:38:32.918Z,51.56
2023-03-15T13:41:03.653Z,51.28
2023-03-15T13:43:35.723Z,51.81
2023-03-15T13:46:04.865Z,51.02
2023-03-15T13:48:34.739Z,51.00
2023-03-15T13:51:06.523Z,50.69
2023-03-15T13:53:49.128Z,50.16
2023-03-15T13:56:19.777Z,49.69
2023-03-15T13:58:52.084Z,49.87
2023-03-15T14:01:23.135Z,49.43
2023-03-15T14:03:58.274Z,49.79
2023-03-15T14:06:28.007Z,49.58
2023-03-15T14:09:02.110Z,49.55
2023-03-15T14:11:37.450Z,49.92
2023-03-15T14:14:23.342Z,49.60
2023-03-15T14:17:04.770Z,49.75
2023-03-15T14:19:35.937Z,49.65
2023-03-15T14:22:13.799Z,50.48
2023-03-15T14:24:44.358Z,50.81
2023-03-15T14:27:17.602Z,51.37
2023-03-15T14:29:50.925Z,51.53
2023-03-15T14:32:29.174Z,52.11
2023-03-15T14:35:03.371Z,52.94
2023-03-15T14:37:37.500Z,53.64
2023-03-15T14:40:20.941Z,54.17
2023-03-15T14:42:50.402Z,55.10
2023-03-15T14:45:22.801Z,55.31
2023-03-15T14:47:57.716Z,55.31
2023-03-15T14:50:28.497Z,55.18
2023-03-15T14:52:58.330Z,55.39
2023-03-15T14:55:33.532Z,56.15
2023-03-15T14:58:02.085Z,56.39
2023-03-15T15:00:33.949Z,56.89
2023-03-15T15:03:04.299Z,56.96
2023-03-15T15:05:35.100Z,57.31
2023-03-15T15:08:06.194Z,58.22
2023-03-15T15:10:35.548Z,58.54
2023-03-15T15:13:06.662Z,58.22
2023-03-15T15:15:54.126Z,58.42
2023-03-15T15:18:23.825Z,58.85
2023-03-15T15:20:55.617Z,59.41
2023-03-15T15:23:26.803Z,59.68
2023-03-15T15:25:58.683Z,59.97
2023-03-15T15:28:35.302Z,60.41
2023-03-15T15:31:07.131Z,61.06
2023-03-15T15:33:35.286Z,61.43
2023-03-15T15:36:03.431Z,61.62
2023-03-15T15:38:39.153Z,62.00
2023-03-15T15:41:13.117Z,61.96
2023-03-15T15:43:41.511Z,62.37
2023-03-15T15:46:13.268Z,62.55
2023-03-15T15:48:41.850Z,62.76
2023-03-15T15:51:24.432Z,63.10
2023-03-15T15:53:53.500Z,63.54
2023-03-15T15:56:21.874Z,63.56
2023-03-15T15:58:50.456Z,64.57
2023-03-15T16:01:19.936Z,64.89
2023-03-15T16:03:49.252Z,64.98
2023-03-15T16:06:20.147Z,65.57
2023-03-15T16:08:51.461Z,65.84
2023-03-15T16:11:20.775Z,65.50
2023-03-15T16:13:51.745Z,65.51
2023-03-15T16:16:22.898Z,65.98
2023-03-15T16:18:51.087Z,67.39
2023-03-15T16:21:26.100Z,66.68
2023-03-15T16:23:58.985Z,67.92
2023-03-15T16:26:27.096Z,69.42
2023-03-15T16:28:55.364Z,70.99
2023-03-15T16:31:24.796Z,72.72
2023-03-15T16:33:52.741Z,74.44
2023-03-15T16:36:22.617Z,76.97
2023-03-15T16:38:50.775Z,78.49
2023-03-15T16:41:19.197Z,80.57
2023-03-15T16:43:49.184Z,82.71
2023-03-15T16:46:18.421Z,84.39
2023-03-15T16:48:47.825Z,86.98
2023-03-15T16:51:17.442Z,87.78
2023-03-15T16:53:47.620Z,88.85
2023-03-15T16:56:16.741Z,89.37
2023-03-15T16:58:47.763Z,89.18
2023-03-15T17:01:15.804Z,90.16
2023-03-15T17:03:44.130Z,89.63
2023-03-15T17:06:20.247Z,90.15
2023-03-15T17:08:49.012Z,90.71
2023-03-15T17:11:17.474Z,91.40
2023-03-15T17:13:45.431Z,91.61
2023-03-15T17:16:15.165Z,90.99
2023-03-15T17:18:43.790Z,91.69
2023-03-15T17:21:14.507Z,92.51
2023-03-15T17:23:45.924Z,91.94
2023-03-15T17:26:17.934Z,92.62
2023-03-15T17:28:46.429Z,93.35
2023-03-15T17:31:31.086Z,93.77
2023-03-15T17:33:58.986Z,94.69
2023-03-15T17:36:30.496Z,96.10
2023-03-15T17:38:59.916Z,97.14
2023-03-15T17:41:30.304Z,98.37
2023-03-15T17:43:58.932Z,98.26
2023-03-15T17:46:31.353Z,99.75
2023-03-15T17:49:00.280Z,100.00
2023-03-15T17:51:31.477Z,100.00
2023-03-15T17:54:01.293Z,100.00
2023-03-15T17:56:30.412Z,99.16
2023-03-15T17:58:58.754Z,99.40
2023-03-15T18:01:28.777Z,98.59
2023-03-15T18:03:58.412Z,98.98
2023-03-15T18:06:26.467Z,99.32
2023-03-15T18:08:54.335Z,98.84
2023-03-15T18:11:28.387Z,98.64
2023-03-15T18:13:57.002Z,99.14
2023-03-15T18:16:26.543Z,100.00
2023-03-15T18:18:54.644Z,100.00
2023-03-15T18:21:25.049Z,100.00
2023-03-15T18:23:53.630Z,100.00
2023-03-15T18:26:25.133Z,100.00
2023-03-15T18:29:13.139Z,100.00
2023-03-15T18:31:44.439Z,100.00
2023-03-15T18:34:21.906Z,100.00
2023-03-15T18:36:52.749Z,100.00
2023-03-15T18:39:23.225Z,100.00
2023-03-15T18:41:54.884Z,100.00
2023-03-15T18:44:27.296Z,100.00
2023-03-15T18:46:57.599Z,100.00
2023-03-15T18:49:31.508Z,100.00
2023-03-15T18:52:02.694Z,100.00
2023-03-15T18:54:44.249Z,100.00
2023-03-15T18:57:25.600Z,100.00
2023-03-15T18:59:59.318Z,100.00
2023-03-15T19:02:33.792Z,100.00
2023-03-15T19:05:02.680Z,100.00
2023-03-15T19:07:33.283Z,100.00
2023-03-15T19:10:01.873Z,100.00
2023-03-15T19:12:34.624Z,100.00
2023-03-15T19:15:10.686Z,100.00
2023-03-15T19:17:38.913Z,100.00
2023-03-15T19:20:16.659Z,100.00
2023-03-15T19:22:59.816Z,100.00
2023-03-15T19:25:33.142Z,100.00
2023-03-15T19:28:05.264Z,100.00
2023-03-15T19:30:37.445Z,100.00
2023-03-15T19:33:09.266Z,100.00
2023-03-15T19:35:38.545Z,100.00
2023-03-15T19:38:08.535Z,100.00
2023-03-15T19:40:48.408Z,100.00
2023-03-15T19:43:19.075Z,100.00
2023-03-15T19:45:54.196Z,100.00
2023-03-15T19:48:29.932Z,100.00
2023-03-15T19:51:22.390Z,100.00
2023-03-15T19:54:05.721Z,100.00
2023-03-15T19:56:35.875Z,100.00
2023-03-15T19:59:04.747Z,100.00
2023-03-15T20:01:40.456Z,100.00
2023-03-15T20:04:16.697Z,100.00
2023-03-15T20:07:03.648Z,100.00
2023-03-15T20:09:41.670Z,100.00
2023-03-15T20:15:16.303Z,100.00
2023-03-15T20:17:48.677Z,100.00
2023-03-15T20:20:16.768Z,100.00
2023-03-15T20:22:46.494Z,100.00
2023-03-15T20:25:16.201Z,100.00
2023-03-15T20:27:44.572Z,100.00
2023-03-15T20:30:20.636Z,100.00
2023-03-15T20:32:50.473Z,100.00
2023-03-15T20:35:18.848Z,100.00
2023-03-15T20:37:48.020Z,100.00
2023-03-15T20:40:27.379Z,100.00
2023-03-15T20:42:57.951Z,100.00
2023-03-15T20:45:29.397Z,100.00
2023-03-15T20:48:07.489Z,100.00
2023-03-15T20:50:41.254Z,100.00
2023-03-15T20:53:24.957Z,100.00
2023-03-15T20:55:57.388Z,100.00
2023-03-15T21:01:21.598Z,100.00
2023-03-15T21:03:53.603Z,100.00
2023-03-15T21:06:23.985Z,100.00
2023-03-15T21:09:02.590Z,100.00
2023-03-15T21:11:30.890Z,100.00
2023-03-15T21:14:11.673Z,100.00
2023-03-15T21:16:49.608Z,100.00
2023-03-15T21:19:27.364Z,100.00
2023-03-15T21:22:14.888Z,100.00
2023-03-15T21:24:55.095Z,100.00
2023-03-15T21:27:27.548Z,100.00
2023-03-15T21:29:56.840Z,100.00
2023-03-15T21:32:36.163Z,100.00
2023-03-15T21:35:24.184Z,100.00
2023-03-15T21:37:52.356Z,100.00
2023-03-15T21:40:21.883Z,100.00
2023-03-15T21:42:50.687Z,100.00
2023-03-15T21:45:23.270Z,100.00
2023-03-15T21:48:02.482Z,100.00
2023-03-15T21:50:38.692Z,100.00
2023-03-15T21:53:20.371Z,100.00
2023-03-15T21:56:00.839Z,100.00
2023-03-15T21:58:36.361Z,100.00
2023-03-15T22:04:35.209Z,100.00
2023-03-15T22:07:08.614Z,100.00
2023-03-15T22:09:53.607Z,100.00
2023-03-15T22:12:21.804Z,100.00
2023-03-15T22:15:00.034Z,100.00
2023-03-15T22:17:48.497Z,100.00
2023-03-15T22:20:17.162Z,100.00
2023-03-15T22:22:47.581Z,100.00
2023-03-15T22:25:19.126Z,100.00
2023-03-15T22:27:48.207Z,100.00
2023-03-15T22:30:19.087Z,100.00
2023-03-15T22:33:22.512Z,100.00
2023-03-15T22:36:51.033Z,100.00
2023-03-15T22:39:49.083Z,100.00
2023-03-15T22:48:12.774Z,100.00
2023-03-15T22:50:49.142Z,100.00
2023-03-15T23:02:46.353Z,100.00
2023-03-15T23:05:15.265Z,100.00
2023-03-15T23:08:38.605Z,100.00
2023-03-15T23:11:07.026Z,100.00
2023-03-15T23:14:00.299Z,100.00
2023-03-15T23:16:50.482Z,100.00
2023-03-15T23:19:18.599Z,100.00
2023-03-15T23:21:55.806Z,100.00
2023-03-15T23:24:50.694Z,100.00
2023-03-15T23:27:39.587Z,100.00
2023-03-15T23:30:41.340Z,100.00
2023-03-15T23:33:34.267Z,100.00
2023-03-15T23:36:02.807Z,100.00
2023-03-15T23:38:41.689Z,100.00
2023-03-15T23:41:25.584Z,100.00
2023-03-15T23:43:54.209Z,100.00
2023-03-15T23:46:24.771Z,100.00
2023-03-15T23:48:53.433Z,100.00
2023-03-15T23:51:22.163Z,100.00
2023-03-15T23:56:53.455Z,100.00
2023-03-15T23:59:58.623Z,100.00
